sensor_id;sensor_type;location;lat;lon;timestamp;temperature;humidity
33109;HTU21D;19481;51.118;6.940;2023-03-02T00:01:12;0.17;51.57
33109;HTU21D;19481;51.118;6.940;2023-03-02T00:06:15;0.07;51.69
33109;HTU21D;19481;51.118;6.940;2023-03-02T00:11:17;-0.03;52.35
33109;HTU21D;19481;51.118;6.940;2023-03-02T00:16:18;-0.09;52.37
33109;HTU21D;19481;51.118;6.940;2023-03-02T00:21:21;-0.16;52.32
33109;HTU21D;19481;51.118;6.940;2023-03-02T00:26:24;-0.14;52.69
33109;HTU21D;19481;51.118;6.940;2023-03-02T00:31:26;-0.24;52.33
33109;HTU21D;19481;51.118;6.940;2023-03-02T00:36:28;-0.23;52.46
33109;HTU21D;19481;51.118;6.940;2023-03-02T00:41:30;-0.21;52.54
33109;HTU21D;19481;51.118;6.940;2023-03-02T00:46:32;-0.19;53.00
33109;HTU21D;19481;51.118;6.940;2023-03-02T00:51:35;-0.29;52.69
33109;HTU21D;19481;51.118;6.940;2023-03-02T00:56:36;-0.50;53.27
33109;HTU21D;19481;51.118;6.940;2023-03-02T01:01:40;-0.56;53.50
33109;HTU21D;19481;51.118;6.940;2023-03-02T01:06:43;-0.57;53.10
33109;HTU21D;19481;51.118;6.940;2023-03-02T01:11:46;-0.57;53.57
33109;HTU21D;19481;51.118;6.940;2023-03-02T01:16:48;-0.65;54.07
33109;HTU21D;19481;51.118;6.940;2023-03-02T01:21:51;-0.75;53.81
33109;HTU21D;19481;51.118;6.940;2023-03-02T01:26:52;-0.75;54.36
33109;HTU21D;19481;51.118;6.940;2023-03-02T01:31:54;-0.76;54.20
33109;HTU21D;19481;51.118;6.940;2023-03-02T01:36:57;-0.80;53.92
33109;HTU21D;19481;51.118;6.940;2023-03-02T01:41:58;-0.88;54.10
33109;HTU21D;19481;51.118;6.940;2023-03-02T01:47:01;-0.93;53.95
33109;HTU21D;19481;51.118;6.940;2023-03-02T01:52:04;-0.88;54.46
33109;HTU21D;19481;51.118;6.940;2023-03-02T01:57:06;-0.99;54.43
33109;HTU21D;19481;51.118;6.940;2023-03-02T02:02:09;-1.06;54.17
33109;HTU21D;19481;51.118;6.940;2023-03-02T02:07:13;-1.09;54.05
33109;HTU21D;19481;51.118;6.940;2023-03-02T02:12:17;-1.09;54.07
33109;HTU21D;19481;51.118;6.940;2023-03-02T02:17:19;-1.09;54.50
33109;HTU21D;19481;51.118;6.940;2023-03-02T02:22:35;-1.11;53.89
33109;HTU21D;19481;51.118;6.940;2023-03-02T02:27:42;-1.14;55.07
33109;HTU21D;19481;51.118;6.940;2023-03-02T02:32:45;-1.14;54.59
33109;HTU21D;19481;51.118;6.940;2023-03-02T02:37:49;-1.13;54.35
33109;HTU21D;19481;51.118;6.940;2023-03-02T02:42:53;-1.14;54.47
33109;HTU21D;19481;51.118;6.940;2023-03-02T02:47:55;-1.29;54.83
33109;HTU21D;19481;51.118;6.940;2023-03-02T02:53:00;-1.27;54.71
33109;HTU21D;19481;51.118;6.940;2023-03-02T02:58:12;-1.28;54.39
33109;HTU21D;19481;51.118;6.940;2023-03-02T03:03:25;-1.25;54.49
33109;HTU21D;19481;51.118;6.940;2023-03-02T03:08:54;-1.32;54.61
33109;HTU21D;19481;51.118;6.940;2023-03-02T03:14:09;-1.31;54.33
33109;HTU21D;19481;51.118;6.940;2023-03-02T03:19:15;-1.38;54.60
33109;HTU21D;19481;51.118;6.940;2023-03-02T03:24:18;-1.42;55.12
33109;HTU21D;19481;51.118;6.940;2023-03-02T03:29:22;-1.45;54.76
33109;HTU21D;19481;51.118;6.940;2023-03-02T03:34:25;-1.44;55.23
33109;HTU21D;19481;51.118;6.940;2023-03-02T03:39:27;-1.42;55.63
33109;HTU21D;19481;51.118;6.940;2023-03-02T03:44:30;-1.54;55.36
33109;HTU21D;19481;51.118;6.940;2023-03-02T03:49:32;-1.56;55.81
33109;HTU21D;19481;51.118;6.940;2023-03-02T03:54:33;-1.62;55.99
33109;HTU21D;19481;51.118;6.940;2023-03-02T03:59:36;-1.65;55.65
33109;HTU21D;19481;51.118;6.940;2023-03-02T04:04:38;-1.62;55.88
33109;HTU21D;19481;51.118;6.940;2023-03-02T04:09:40;-1.62;56.34
33109;HTU21D;19481;51.118;6.940;2023-03-02T04:14:43;-1.73;56.15
33109;HTU21D;19481;51.118;6.940;2023-03-02T04:19:44;-1.65;56.09
33109;HTU21D;19481;51.118;6.940;2023-03-02T04:24:47;-1.70;55.86
33109;HTU21D;19481;51.118;6.940;2023-03-02T04:29:50;-1.73;56.16
33109;HTU21D;19481;51.118;6.940;2023-03-02T04:34:52;-1.58;56.23
33109;HTU21D;19481;51.118;6.940;2023-03-02T04:39:53;-1.62;55.94
33109;HTU21D;19481;51.118;6.940;2023-03-02T04:44:56;-1.71;55.67
33109;HTU21D;19481;51.118;6.940;2023-03-02T04:49:59;-1.85;56.19
33109;HTU21D;19481;51.118;6.940;2023-03-02T04:55:00;-1.88;56.61
33109;HTU21D;19481;51.118;6.940;2023-03-02T05:00:05;-1.88;56.52
33109;HTU21D;19481;51.118;6.940;2023-03-02T05:05:12;-1.89;57.71
33109;HTU21D;19481;51.118;6.940;2023-03-02T05:10:16;-1.90;57.26
33109;HTU21D;19481;51.118;6.940;2023-03-02T05:15:20;-2.02;56.67
33109;HTU21D;19481;51.118;6.940;2023-03-02T05:20:22;-2.09;56.91
33109;HTU21D;19481;51.118;6.940;2023-03-02T05:25:28;-1.97;57.37
33109;HTU21D;19481;51.118;6.940;2023-03-02T05:30:31;-2.00;56.84
33109;HTU21D;19481;51.118;6.940;2023-03-02T05:35:37;-2.04;57.00
33109;HTU21D;19481;51.118;6.940;2023-03-02T05:40:38;-1.86;57.25
33109;HTU21D;19481;51.118;6.940;2023-03-02T05:45:44;-1.89;57.16
33109;HTU21D;19481;51.118;6.940;2023-03-02T05:50:46;-1.92;57.28
33109;HTU21D;19481;51.118;6.940;2023-03-02T05:55:47;-2.01;57.15
33109;HTU21D;19481;51.118;6.940;2023-03-02T06:00:50;-2.05;57.15
33109;HTU21D;19481;51.118;6.940;2023-03-02T06:05:52;-2.17;57.51
33109;HTU21D;19481;51.118;6.940;2023-03-02T06:10:54;-2.18;57.45
33109;HTU21D;19481;51.118;6.940;2023-03-02T06:15:57;-2.08;57.45
33109;HTU21D;19481;51.118;6.940;2023-03-02T06:20:59;-2.08;57.29
33109;HTU21D;19481;51.118;6.940;2023-03-02T06:26:06;-2.13;56.72
33109;HTU21D;19481;51.118;6.940;2023-03-02T06:31:09;-2.07;57.49
33109;HTU21D;19481;51.118;6.940;2023-03-02T06:36:11;-2.03;57.29
33109;HTU21D;19481;51.118;6.940;2023-03-02T06:41:14;-1.91;57.13
33109;HTU21D;19481;51.118;6.940;2023-03-02T06:46:17;-1.64;57.03
33109;HTU21D;19481;51.118;6.940;2023-03-02T06:51:19;-1.67;57.03
33109;HTU21D;19481;51.118;6.940;2023-03-02T06:56:20;-1.53;56.71
33109;HTU21D;19481;51.118;6.940;2023-03-02T07:01:23;-1.40;56.35
33109;HTU21D;19481;51.118;6.940;2023-03-02T07:06:25;-1.19;56.16
33109;HTU21D;19481;51.118;6.940;2023-03-02T07:11:26;-1.05;56.22
33109;HTU21D;19481;51.118;6.940;2023-03-02T07:16:29;-0.82;55.42
33109;HTU21D;19481;51.118;6.940;2023-03-02T07:21:31;-0.54;55.07
33109;HTU21D;19481;51.118;6.940;2023-03-02T07:26:33;-0.41;54.78
33109;HTU21D;19481;51.118;6.940;2023-03-02T07:31:35;-0.11;54.32
33109;HTU21D;19481;51.118;6.940;2023-03-02T07:36:37;0.31;53.42
33109;HTU21D;19481;51.118;6.940;2023-03-02T07:41:39;4.39;44.69
33109;HTU21D;19481;51.118;6.940;2023-03-02T07:46:42;8.98;36.59
33109;HTU21D;19481;51.118;6.940;2023-03-02T07:51:43;11.15;35.79
33109;HTU21D;19481;51.118;6.940;2023-03-02T07:56:45;11.34;39.54
33109;HTU21D;19481;51.118;6.940;2023-03-02T08:01:48;13.09;38.86
33109;HTU21D;19481;51.118;6.940;2023-03-02T08:06:50;14.69;37.89
33109;HTU21D;19481;51.118;6.940;2023-03-02T08:11:52;15.36;38.48
33109;HTU21D;19481;51.118;6.940;2023-03-02T08:16:55;15.58;39.34
33109;HTU21D;19481;51.118;6.940;2023-03-02T08:21:56;15.25;40.75
33109;HTU21D;19481;51.118;6.940;2023-03-02T08:26:58;16.15;39.24
33109;HTU21D;19481;51.118;6.940;2023-03-02T08:32:01;15.99;39.35
33109;HTU21D;19481;51.118;6.940;2023-03-02T08:37:03;15.92;38.88
33109;HTU21D;19481;51.118;6.940;2023-03-02T08:42:05;14.60;41.26
33109;HTU21D;19481;51.118;6.940;2023-03-02T08:47:08;11.96;47.95
33109;HTU21D;19481;51.118;6.940;2023-03-02T08:52:09;11.71;47.01
33109;HTU21D;19481;51.118;6.940;2023-03-02T08:57:14;11.82;44.83
33109;HTU21D;19481;51.118;6.940;2023-03-02T09:02:17;11.07;45.66
33109;HTU21D;19481;51.118;6.940;2023-03-02T09:07:18;12.01;41.98
33109;HTU21D;19481;51.118;6.940;2023-03-02T09:12:20;12.18;40.88
33109;HTU21D;19481;51.118;6.940;2023-03-02T09:17:23;11.92;40.62
33109;HTU21D;19481;51.118;6.940;2023-03-02T09:22:25;12.92;38.14
33109;HTU21D;19481;51.118;6.940;2023-03-02T09:27:26;12.76;38.55
33109;HTU21D;19481;51.118;6.940;2023-03-02T09:32:29;13.02;38.23
33109;HTU21D;19481;51.118;6.940;2023-03-02T09:37:31;14.66;34.94
33109;HTU21D;19481;51.118;6.940;2023-03-02T09:48:18;14.13;33.87
33109;HTU21D;19481;51.118;6.940;2023-03-02T09:53:34;14.43;32.57
33109;HTU21D;19481;51.118;6.940;2023-03-02T09:58:38;14.21;36.72
33109;HTU21D;19481;51.118;6.940;2023-03-02T10:03:49;14.78;28.71
33109;HTU21D;19481;51.118;6.940;2023-03-02T10:08:52;14.32;36.37
33109;HTU21D;19481;51.118;6.940;2023-03-02T10:13:59;14.72;32.12
33109;HTU21D;19481;51.118;6.940;2023-03-02T10:19:08;14.80;22.47
33109;HTU21D;19481;51.118;6.940;2023-03-02T10:24:15;14.85;34.15
33109;HTU21D;19481;51.118;6.940;2023-03-02T10:29:44;14.86;28.22
33109;HTU21D;19481;51.118;6.940;2023-03-02T10:34:49;15.47;33.92
33109;HTU21D;19481;51.118;6.940;2023-03-02T10:39:51;15.38;34.24
33109;HTU21D;19481;51.118;6.940;2023-03-02T10:45:13;15.27;24.78
33109;HTU21D;19481;51.118;6.940;2023-03-02T10:50:22;15.24;32.13
33109;HTU21D;19481;51.118;6.940;2023-03-02T10:55:24;15.73;33.26
33109;HTU21D;19481;51.118;6.940;2023-03-02T11:00:27;15.30;33.93
33109;HTU21D;19481;51.118;6.940;2023-03-02T11:05:32;16.19;28.17
33109;HTU21D;19481;51.118;6.940;2023-03-02T11:10:36;16.04;31.90
33109;HTU21D;19481;51.118;6.940;2023-03-02T11:15:41;16.21;31.95
33109;HTU21D;19481;51.118;6.940;2023-03-02T11:20:48;16.65;28.08
33109;HTU21D;19481;51.118;6.940;2023-03-02T11:25:53;16.51;31.41
33109;HTU21D;19481;51.118;6.940;2023-03-02T11:30:56;16.02;32.51
33109;HTU21D;19481;51.118;6.940;2023-03-02T11:36:06;16.10;27.27
33109;HTU21D;19481;51.118;6.940;2023-03-02T11:41:18;15.95;25.29
33109;HTU21D;19481;51.118;6.940;2023-03-02T11:46:26;16.07;31.21
33109;HTU21D;19481;51.118;6.940;2023-03-02T11:51:34;16.17;30.66
33109;HTU21D;19481;51.118;6.940;2023-03-02T11:56:38;15.86;31.13
33109;HTU21D;19481;51.118;6.940;2023-03-02T12:01:41;14.96;32.78
33109;HTU21D;19481;51.118;6.940;2023-03-02T12:06:46;14.62;31.41
33109;HTU21D;19481;51.118;6.940;2023-03-02T12:11:54;14.18;29.98
33109;HTU21D;19481;51.118;6.940;2023-03-02T12:17:18;13.47;24.37
33109;HTU21D;19481;51.118;6.940;2023-03-02T12:22:27;13.23;32.05
33109;HTU21D;19481;51.118;6.940;2023-03-02T12:27:32;12.96;23.89
33109;HTU21D;19481;51.118;6.940;2023-03-02T12:32:36;12.64;33.54
33109;HTU21D;19481;51.118;6.940;2023-03-02T12:37:44;12.29;31.25
33109;HTU21D;19481;51.118;6.940;2023-03-02T12:42:49;12.14;32.47
33109;HTU21D;19481;51.118;6.940;2023-03-02T12:48:00;12.11;32.86
33109;HTU21D;19481;51.118;6.940;2023-03-02T12:53:06;12.29;31.03
33109;HTU21D;19481;51.118;6.940;2023-03-02T12:58:17;12.28;31.96
33109;HTU21D;19481;51.118;6.940;2023-03-02T13:03:19;12.21;32.18
33109;HTU21D;19481;51.118;6.940;2023-03-02T13:08:25;12.02;32.50
33109;HTU21D;19481;51.118;6.940;2023-03-02T13:13:34;12.15;30.72
33109;HTU21D;19481;51.118;6.940;2023-03-02T13:18:37;12.11;32.21
33109;HTU21D;19481;51.118;6.940;2023-03-02T13:23:46;12.14;29.41
33109;HTU21D;19481;51.118;6.940;2023-03-02T13:28:59;12.01;27.49
33109;HTU21D;19481;51.118;6.940;2023-03-02T13:34:01;12.04;31.54
33109;HTU21D;19481;51.118;6.940;2023-03-02T13:39:05;12.10;29.72
33109;HTU21D;19481;51.118;6.940;2023-03-02T13:44:16;12.01;26.58
33109;HTU21D;19481;51.118;6.940;2023-03-02T13:49:26;12.07;28.45
33109;HTU21D;19481;51.118;6.940;2023-03-02T13:54:32;12.14;30.56
33109;HTU21D;19481;51.118;6.940;2023-03-02T13:59:34;12.31;30.95
33109;HTU21D;19481;51.118;6.940;2023-03-02T14:04:36;12.30;31.02
33109;HTU21D;19481;51.118;6.940;2023-03-02T14:09:39;12.49;30.40
33109;HTU21D;19481;51.118;6.940;2023-03-02T14:14:41;15.15;24.62
33109;HTU21D;19481;51.118;6.940;2023-03-02T14:19:42;12.91;29.68
33109;HTU21D;19481;51.118;6.940;2023-03-02T14:24:47;12.50;30.69
33109;HTU21D;19481;51.118;6.940;2023-03-02T14:29:48;16.39;23.03
33109;HTU21D;19481;51.118;6.940;2023-03-02T14:34:50;13.82;28.17
33109;HTU21D;19481;51.118;6.940;2023-03-02T14:39:53;13.96;27.84
33109;HTU21D;19481;51.118;6.940;2023-03-02T14:44:55;15.61;24.44
33109;HTU21D;19481;51.118;6.940;2023-03-02T14:49:56;13.61;28.39
33109;HTU21D;19481;51.118;6.940;2023-03-02T14:55:02;13.14;29.42
33109;HTU21D;19481;51.118;6.940;2023-03-02T15:00:07;12.94;29.97
33109;HTU21D;19481;51.118;6.940;2023-03-02T15:05:09;12.82;30.19
33109;HTU21D;19481;51.118;6.940;2023-03-02T15:10:14;12.86;30.06
33109;HTU21D;19481;51.118;6.940;2023-03-02T15:15:18;12.71;30.51
33109;HTU21D;19481;51.118;6.940;2023-03-02T15:20:19;12.63;30.45
33109;HTU21D;19481;51.118;6.940;2023-03-02T15:25:22;12.47;30.54
33109;HTU21D;19481;51.118;6.940;2023-03-02T15:30:25;12.50;30.32
33109;HTU21D;19481;51.118;6.940;2023-03-02T15:35:29;12.35;30.48
33109;HTU21D;19481;51.118;6.940;2023-03-02T15:40:32;12.32;30.38
33109;HTU21D;19481;51.118;6.940;2023-03-02T15:45:34;12.11;30.51
33109;HTU21D;19481;51.118;6.940;2023-03-02T15:50:36;11.98;30.85
33109;HTU21D;19481;51.118;6.940;2023-03-02T15:55:40;11.79;30.06
33109;HTU21D;19481;51.118;6.940;2023-03-02T16:00:42;11.71;31.14
33109;HTU21D;19481;51.118;6.940;2023-03-02T16:05:43;11.48;31.40
33109;HTU21D;19481;51.118;6.940;2023-03-02T16:10:55;11.37;28.81
33109;HTU21D;19481;51.118;6.940;2023-03-02T16:15:59;11.17;31.39
33109;HTU21D;19481;51.118;6.940;2023-03-02T16:21:01;11.12;31.54
33109;HTU21D;19481;51.118;6.940;2023-03-02T16:26:09;10.90;30.48
33109;HTU21D;19481;51.118;6.940;2023-03-02T16:31:13;10.75;31.91
33109;HTU21D;19481;51.118;6.940;2023-03-02T16:36:15;10.56;32.43
33109;HTU21D;19481;51.118;6.940;2023-03-02T16:41:19;10.42;32.43
33109;HTU21D;19481;51.118;6.940;2023-03-02T16:46:22;10.23;32.88
33109;HTU21D;19481;51.118;6.940;2023-03-02T16:51:24;10.11;33.04
33109;HTU21D;19481;51.118;6.940;2023-03-02T16:56:27;9.92;33.38
33109;HTU21D;19481;51.118;6.940;2023-03-02T17:01:29;9.80;33.60
33109;HTU21D;19481;51.118;6.940;2023-03-02T17:06:31;9.61;33.86
33109;HTU21D;19481;51.118;6.940;2023-03-02T17:11:34;9.31;34.66
33109;HTU21D;19481;51.118;6.940;2023-03-02T17:16:35;9.11;35.05
33109;HTU21D;19481;51.118;6.940;2023-03-02T17:21:40;8.92;35.44
33109;HTU21D;19481;51.118;6.940;2023-03-02T17:26:44;8.65;36.01
33109;HTU21D;19481;51.118;6.940;2023-03-02T17:31:46;8.47;36.32
33109;HTU21D;19481;51.118;6.940;2023-03-02T17:36:48;8.27;36.71
33109;HTU21D;19481;51.118;6.940;2023-03-02T17:41:50;8.14;36.81
33109;HTU21D;19481;51.118;6.940;2023-03-02T17:46:52;8.15;36.59
33109;HTU21D;19481;51.118;6.940;2023-03-02T17:51:54;7.89;37.21
33109;HTU21D;19481;51.118;6.940;2023-03-02T17:56:57;7.76;37.50
33109;HTU21D;19481;51.118;6.940;2023-03-02T18:01:59;7.58;37.91
33109;HTU21D;19481;51.118;6.940;2023-03-02T18:07:01;7.43;38.41
33109;HTU21D;19481;51.118;6.940;2023-03-02T18:12:04;7.34;38.65
33109;HTU21D;19481;51.118;6.940;2023-03-02T18:17:06;7.18;39.33
33109;HTU21D;19481;51.118;6.940;2023-03-02T18:22:09;7.04;39.84
33109;HTU21D;19481;51.118;6.940;2023-03-02T18:27:12;6.98;40.07
33109;HTU21D;19481;51.118;6.940;2023-03-02T18:32:14;7.00;40.36
33109;HTU21D;19481;51.118;6.940;2023-03-02T18:37:16;7.07;40.51
33109;HTU21D;19481;51.118;6.940;2023-03-02T18:42:19;6.97;40.69
33109;HTU21D;19481;51.118;6.940;2023-03-02T18:47:21;6.99;41.57
33109;HTU21D;19481;51.118;6.940;2023-03-02T18:52:23;6.93;41.50
33109;HTU21D;19481;51.118;6.940;2023-03-02T18:57:26;6.87;41.60
33109;HTU21D;19481;51.118;6.940;2023-03-02T19:02:27;6.78;42.32
33109;HTU21D;19481;51.118;6.940;2023-03-02T19:07:29;6.74;42.81
33109;HTU21D;19481;51.118;6.940;2023-03-02T19:12:32;6.66;42.88
33109;HTU21D;19481;51.118;6.940;2023-03-02T19:17:34;6.59;43.49
33109;HTU21D;19481;51.118;6.940;2023-03-02T19:22:36;6.40;43.80
33109;HTU21D;19481;51.118;6.940;2023-03-02T19:27:39;6.31;44.13
33109;HTU21D;19481;51.118;6.940;2023-03-02T19:32:40;6.23;44.55
33109;HTU21D;19481;51.118;6.940;2023-03-02T19:37:43;6.17;44.63
33109;HTU21D;19481;51.118;6.940;2023-03-02T19:42:46;5.99;45.10
33109;HTU21D;19481;51.118;6.940;2023-03-02T19:47:48;5.90;45.28
33109;HTU21D;19481;51.118;6.940;2023-03-02T19:52:50;5.70;45.50
33109;HTU21D;19481;51.118;6.940;2023-03-02T19:57:55;5.63;45.58
33109;HTU21D;19481;51.118;6.940;2023-03-02T20:02:59;5.38;46.33
33109;HTU21D;19481;51.118;6.940;2023-03-02T20:08:01;5.26;46.99
33109;HTU21D;19481;51.118;6.940;2023-03-02T20:13:05;5.20;47.11
33109;HTU21D;19481;51.118;6.940;2023-03-02T20:18:08;5.10;47.28
33109;HTU21D;19481;51.118;6.940;2023-03-02T20:23:10;4.94;48.12
33109;HTU21D;19481;51.118;6.940;2023-03-02T20:28:15;4.93;47.62
33109;HTU21D;19481;51.118;6.940;2023-03-02T20:33:19;4.78;48.16
33109;HTU21D;19481;51.118;6.940;2023-03-02T20:38:25;4.72;48.12
33109;HTU21D;19481;51.118;6.940;2023-03-02T20:43:29;4.59;48.48
33109;HTU21D;19481;51.118;6.940;2023-03-02T20:48:31;4.47;48.93
33109;HTU21D;19481;51.118;6.940;2023-03-02T20:53:32;4.38;49.02
33109;HTU21D;19481;51.118;6.940;2023-03-02T20:58:36;4.28;49.27
33109;HTU21D;19481;51.118;6.940;2023-03-02T21:03:41;4.23;48.99
33109;HTU21D;19481;51.118;6.940;2023-03-02T21:08:43;4.09;49.30
33109;HTU21D;19481;51.118;6.940;2023-03-02T21:13:47;3.94;49.82
33109;HTU21D;19481;51.118;6.940;2023-03-02T21:18:49;3.79;50.21
33109;HTU21D;19481;51.118;6.940;2023-03-02T21:23:50;3.80;50.91
33109;HTU21D;19481;51.118;6.940;2023-03-02T21:28:53;3.78;50.22
33109;HTU21D;19481;51.118;6.940;2023-03-02T21:33:56;3.61;50.48
33109;HTU21D;19481;51.118;6.940;2023-03-02T21:38:59;3.46;50.78
33109;HTU21D;19481;51.118;6.940;2023-03-02T21:44:03;3.33;50.91
33109;HTU21D;19481;51.118;6.940;2023-03-02T21:49:05;3.25;51.25
33109;HTU21D;19481;51.118;6.940;2023-03-02T21:54:07;3.12;51.58
33109;HTU21D;19481;51.118;6.940;2023-03-02T21:59:12;3.04;51.46
33109;HTU21D;19481;51.118;6.940;2023-03-02T22:04:14;2.94;51.91
33109;HTU21D;19481;51.118;6.940;2023-03-02T22:09:15;2.73;52.36
33109;HTU21D;19481;51.118;6.940;2023-03-02T22:14:18;2.68;52.62
33109;HTU21D;19481;51.118;6.940;2023-03-02T22:19:25;2.55;52.31
33109;HTU21D;19481;51.118;6.940;2023-03-02T22:24:28;2.45;52.81
33109;HTU21D;19481;51.118;6.940;2023-03-02T22:29:37;2.43;52.56
33109;HTU21D;19481;51.118;6.940;2023-03-02T22:34:42;2.28;53.24
33109;HTU21D;19481;51.118;6.940;2023-03-02T22:39:44;2.09;53.59
33109;HTU21D;19481;51.118;6.940;2023-03-02T22:44:54;2.00;53.60
33109;HTU21D;19481;51.118;6.940;2023-03-02T22:50:20;2.02;54.90
33109;HTU21D;19481;51.118;6.940;2023-03-02T22:55:34;2.00;53.63
33109;HTU21D;19481;51.118;6.940;2023-03-02T23:00:39;1.90;53.74
33109;HTU21D;19481;51.118;6.940;2023-03-02T23:05:41;1.73;54.66
33109;HTU21D;19481;51.118;6.940;2023-03-02T23:10:43;1.64;54.87
33109;HTU21D;19481;51.118;6.940;2023-03-02T23:15:48;1.60;54.78
33109;HTU21D;19481;51.118;6.940;2023-03-02T23:20:50;1.55;54.98
33109;HTU21D;19481;51.118;6.940;2023-03-02T23:25:52;1.61;56.71
33109;HTU21D;19481;51.118;6.940;2023-03-02T23:30:55;1.54;56.02
33109;HTU21D;19481;51.118;6.940;2023-03-02T23:35:56;1.49;56.47
33109;HTU21D;19481;51.118;6.940;2023-03-02T23:40:58;1.51;56.18
33109;HTU21D;19481;51.118;6.940;2023-03-02T23:46:01;1.39;55.88
33109;HTU21D;19481;51.118;6.940;2023-03-02T23:51:03;1.26;56.13
33109;HTU21D;19481;51.118;6.940;2023-03-02T23:56:05;1.16;56.26
